sensor_id;sensor_type;location;lat;lon;timestamp;P1;durP1;ratioP1;P2;durP2;ratioP2
44276;SDS011;29973;43.742;1.236;2023-06-19T00:01:19;24.95;;;16.35;;
44276;SDS011;29973;43.742;1.236;2023-06-19T00:03:45;28.27;;;16.52;;
44276;SDS011;29973;43.742;1.236;2023-06-19T00:06:10;30.40;;;18.95;;
44276;SDS011;29973;43.742;1.236;2023-06-19T00:08:38;37.47;;;20.10;;
44276;SDS011;29973;43.742;1.236;2023-06-19T00:11:06;29.70;;;18.45;;
44276;SDS011;29973;43.742;1.236;2023-06-19T00:13:32;35.47;;;17.77;;
44276;SDS011;29973;43.742;1.236;2023-06-19T00:15:58;28.23;;;17.02;;
44276;SDS011;29973;43.742;1.236;2023-06-19T00:18:25;30.95;;;16.65;;
44276;SDS011;29973;43.742;1.236;2023-06-19T00:20:51;24.33;;;17.00;;
44276;SDS011;29973;43.742;1.236;2023-06-19T00:23:19;31.02;;;16.75;;
44276;SDS011;29973;43.742;1.236;2023-06-19T00:25:45;30.13;;;16.48;;
44276;SDS011;29973;43.742;1.236;2023-06-19T00:28:10;28.27;;;15.60;;
44276;SDS011;29973;43.742;1.236;2023-06-19T00:30:39;23.55;;;14.18;;
44276;SDS011;29973;43.742;1.236;2023-06-19T00:33:05;27.80;;;13.98;;
44276;SDS011;29973;43.742;1.236;2023-06-19T00:35:32;30.17;;;15.23;;
44276;SDS011;29973;43.742;1.236;2023-06-19T00:37:58;30.33;;;14.05;;
44276;SDS011;29973;43.742;1.236;2023-06-19T00:40:29;29.33;;;15.48;;
44276;SDS011;29973;43.742;1.236;2023-06-19T00:42:56;30.55;;;14.75;;
44276;SDS011;29973;43.742;1.236;2023-06-19T00:45:22;32.50;;;15.35;;
44276;SDS011;29973;43.742;1.236;2023-06-19T00:47:52;26.50;;;14.48;;
44276;SDS011;29973;43.742;1.236;2023-06-19T00:50:19;25.90;;;14.95;;
44276;SDS011;29973;43.742;1.236;2023-06-19T00:52:48;32.63;;;15.13;;
44276;SDS011;29973;43.742;1.236;2023-06-19T00:55:14;34.35;;;16.40;;
44276;SDS011;29973;43.742;1.236;2023-06-19T00:57:41;29.45;;;17.90;;
44276;SDS011;29973;43.742;1.236;2023-06-19T01:00:07;32.38;;;16.55;;
44276;SDS011;29973;43.742;1.236;2023-06-19T01:02:34;28.42;;;16.90;;
44276;SDS011;29973;43.742;1.236;2023-06-19T01:05:00;28.40;;;17.38;;
44276;SDS011;29973;43.742;1.236;2023-06-19T01:10:06;32.22;;;16.92;;
44276;SDS011;29973;43.742;1.236;2023-06-19T01:12:37;28.88;;;16.17;;
44276;SDS011;29973;43.742;1.236;2023-06-19T01:15:09;31.20;;;14.65;;
44276;SDS011;29973;43.742;1.236;2023-06-19T01:17:35;26.48;;;14.55;;
44276;SDS011;29973;43.742;1.236;2023-06-19T01:20:02;22.92;;;13.63;;
44276;SDS011;29973;43.742;1.236;2023-06-19T01:22:35;25.83;;;13.02;;
44276;SDS011;29973;43.742;1.236;2023-06-19T01:25:01;22.10;;;14.25;;
44276;SDS011;29973;43.742;1.236;2023-06-19T01:27:29;29.13;;;14.25;;
44276;SDS011;29973;43.742;1.236;2023-06-19T01:29:55;30.23;;;12.20;;
44276;SDS011;29973;43.742;1.236;2023-06-19T01:32:50;22.67;;;12.30;;
44276;SDS011;29973;43.742;1.236;2023-06-19T01:35:28;27.80;;;12.00;;
44276;SDS011;29973;43.742;1.236;2023-06-19T01:37:57;23.02;;;12.93;;
44276;SDS011;29973;43.742;1.236;2023-06-19T01:40:25;24.83;;;12.13;;
44276;SDS011;29973;43.742;1.236;2023-06-19T01:42:56;18.38;;;11.57;;
44276;SDS011;29973;43.742;1.236;2023-06-19T01:45:25;20.40;;;11.55;;
44276;SDS011;29973;43.742;1.236;2023-06-19T01:47:53;28.00;;;13.68;;
44276;SDS011;29973;43.742;1.236;2023-06-19T01:50:19;22.83;;;12.63;;
44276;SDS011;29973;43.742;1.236;2023-06-19T01:52:49;31.48;;;12.43;;
44276;SDS011;29973;43.742;1.236;2023-06-19T01:55:15;20.98;;;13.23;;
44276;SDS011;29973;43.742;1.236;2023-06-19T01:57:41;18.00;;;11.15;;
44276;SDS011;29973;43.742;1.236;2023-06-19T02:00:07;23.00;;;10.45;;
44276;SDS011;29973;43.742;1.236;2023-06-19T02:02:33;24.13;;;12.10;;
44276;SDS011;29973;43.742;1.236;2023-06-19T02:04:59;22.25;;;12.55;;
44276;SDS011;29973;43.742;1.236;2023-06-19T02:07:25;21.75;;;13.02;;
44276;SDS011;29973;43.742;1.236;2023-06-19T02:09:51;25.15;;;12.60;;
44276;SDS011;29973;43.742;1.236;2023-06-19T02:12:16;24.48;;;12.48;;
44276;SDS011;29973;43.742;1.236;2023-06-19T02:14:42;23.80;;;12.77;;
44276;SDS011;29973;43.742;1.236;2023-06-19T02:17:08;25.40;;;12.27;;
44276;SDS011;29973;43.742;1.236;2023-06-19T02:19:34;21.30;;;12.93;;
44276;SDS011;29973;43.742;1.236;2023-06-19T02:21:59;23.65;;;12.43;;
44276;SDS011;29973;43.742;1.236;2023-06-19T02:24:25;20.08;;;12.20;;
44276;SDS011;29973;43.742;1.236;2023-06-19T02:26:51;25.10;;;12.48;;
44276;SDS011;29973;43.742;1.236;2023-06-19T02:29:16;22.92;;;12.35;;
44276;SDS011;29973;43.742;1.236;2023-06-19T02:31:42;22.20;;;13.05;;
44276;SDS011;29973;43.742;1.236;2023-06-19T02:34:09;26.90;;;12.82;;
44276;SDS011;29973;43.742;1.236;2023-06-19T02:36:35;21.90;;;12.52;;
44276;SDS011;29973;43.742;1.236;2023-06-19T02:39:01;26.25;;;12.40;;
44276;SDS011;29973;43.742;1.236;2023-06-19T02:41:29;20.45;;;12.25;;
44276;SDS011;29973;43.742;1.236;2023-06-19T02:43:55;20.70;;;13.02;;
44276;SDS011;29973;43.742;1.236;2023-06-19T02:46:20;18.85;;;12.75;;
44276;SDS011;29973;43.742;1.236;2023-06-19T02:48:46;25.88;;;13.45;;
44276;SDS011;29973;43.742;1.236;2023-06-19T02:51:12;21.65;;;13.43;;
44276;SDS011;29973;43.742;1.236;2023-06-19T02:53:38;19.38;;;13.82;;
44276;SDS011;29973;43.742;1.236;2023-06-19T02:56:04;25.25;;;14.48;;
44276;SDS011;29973;43.742;1.236;2023-06-19T02:58:30;20.00;;;13.57;;
44276;SDS011;29973;43.742;1.236;2023-06-19T03:00:56;27.80;;;14.10;;
44276;SDS011;29973;43.742;1.236;2023-06-19T03:03:21;24.48;;;14.30;;
44276;SDS011;29973;43.742;1.236;2023-06-19T03:05:48;26.80;;;15.00;;
44276;SDS011;29973;43.742;1.236;2023-06-19T03:08:13;27.33;;;15.63;;
44276;SDS011;29973;43.742;1.236;2023-06-19T03:10:39;21.27;;;15.07;;
44276;SDS011;29973;43.742;1.236;2023-06-19T03:13:05;27.52;;;16.60;;
44276;SDS011;29973;43.742;1.236;2023-06-19T03:15:30;24.60;;;16.33;;
44276;SDS011;29973;43.742;1.236;2023-06-19T03:17:56;31.55;;;16.75;;
44276;SDS011;29973;43.742;1.236;2023-06-19T03:20:22;27.52;;;16.40;;
44276;SDS011;29973;43.742;1.236;2023-06-19T03:22:47;28.15;;;17.30;;
44276;SDS011;29973;43.742;1.236;2023-06-19T03:25:13;29.45;;;18.05;;
44276;SDS011;29973;43.742;1.236;2023-06-19T03:27:39;34.53;;;18.42;;
44276;SDS011;29973;43.742;1.236;2023-06-19T03:30:05;29.13;;;17.80;;
44276;SDS011;29973;43.742;1.236;2023-06-19T03:32:32;27.55;;;16.95;;
44276;SDS011;29973;43.742;1.236;2023-06-19T03:34:58;26.20;;;18.08;;
44276;SDS011;29973;43.742;1.236;2023-06-19T03:37:24;31.05;;;19.70;;
44276;SDS011;29973;43.742;1.236;2023-06-19T03:39:50;28.05;;;19.02;;
44276;SDS011;29973;43.742;1.236;2023-06-19T03:42:15;33.97;;;20.42;;
44276;SDS011;29973;43.742;1.236;2023-06-19T03:44:41;28.27;;;19.52;;
44276;SDS011;29973;43.742;1.236;2023-06-19T03:47:07;30.77;;;19.15;;
44276;SDS011;29973;43.742;1.236;2023-06-19T03:49:33;32.38;;;18.48;;
44276;SDS011;29973;43.742;1.236;2023-06-19T03:51:58;29.38;;;19.40;;
44276;SDS011;29973;43.742;1.236;2023-06-19T03:54:24;32.45;;;19.20;;
44276;SDS011;29973;43.742;1.236;2023-06-19T03:56:51;42.80;;;17.98;;
44276;SDS011;29973;43.742;1.236;2023-06-19T03:59:17;38.33;;;20.05;;
44276;SDS011;29973;43.742;1.236;2023-06-19T04:01:43;33.05;;;19.67;;
44276;SDS011;29973;43.742;1.236;2023-06-19T04:04:09;38.55;;;19.17;;
44276;SDS011;29973;43.742;1.236;2023-06-19T04:06:34;39.65;;;20.20;;
44276;SDS011;29973;43.742;1.236;2023-06-19T04:09:00;33.92;;;20.08;;
44276;SDS011;29973;43.742;1.236;2023-06-19T04:11:26;28.30;;;19.65;;
44276;SDS011;29973;43.742;1.236;2023-06-19T04:13:51;40.13;;;19.75;;
44276;SDS011;29973;43.742;1.236;2023-06-19T04:16:17;31.25;;;19.40;;
44276;SDS011;29973;43.742;1.236;2023-06-19T04:18:43;29.10;;;18.45;;
44276;SDS011;29973;43.742;1.236;2023-06-19T04:21:09;41.50;;;18.88;;
44276;SDS011;29973;43.742;1.236;2023-06-19T04:23:34;35.42;;;18.70;;
44276;SDS011;29973;43.742;1.236;2023-06-19T04:26:00;33.13;;;18.42;;
44276;SDS011;29973;43.742;1.236;2023-06-19T04:28:27;31.80;;;18.30;;
44276;SDS011;29973;43.742;1.236;2023-06-19T04:30:52;31.83;;;18.60;;
44276;SDS011;29973;43.742;1.236;2023-06-19T04:33:28;32.17;;;18.88;;
44276;SDS011;29973;43.742;1.236;2023-06-19T04:35:54;28.75;;;18.55;;
44276;SDS011;29973;43.742;1.236;2023-06-19T04:38:20;27.42;;;17.85;;
44276;SDS011;29973;43.742;1.236;2023-06-19T04:40:50;37.33;;;18.58;;
44276;SDS011;29973;43.742;1.236;2023-06-19T04:43:16;34.60;;;18.52;;
44276;SDS011;29973;43.742;1.236;2023-06-19T04:45:42;27.70;;;19.67;;
44276;SDS011;29973;43.742;1.236;2023-06-19T04:48:08;32.58;;;18.58;;
44276;SDS011;29973;43.742;1.236;2023-06-19T04:50:34;25.83;;;17.45;;
44276;SDS011;29973;43.742;1.236;2023-06-19T04:53:01;27.05;;;16.52;;
44276;SDS011;29973;43.742;1.236;2023-06-19T04:55:26;28.55;;;17.58;;
44276;SDS011;29973;43.742;1.236;2023-06-19T04:57:52;33.25;;;18.48;;
44276;SDS011;29973;43.742;1.236;2023-06-19T05:00:18;32.03;;;19.60;;
44276;SDS011;29973;43.742;1.236;2023-06-19T05:02:44;32.22;;;18.30;;
44276;SDS011;29973;43.742;1.236;2023-06-19T05:05:12;30.23;;;18.20;;
44276;SDS011;29973;43.742;1.236;2023-06-19T05:07:38;34.75;;;18.08;;
44276;SDS011;29973;43.742;1.236;2023-06-19T05:10:05;27.48;;;18.08;;
44276;SDS011;29973;43.742;1.236;2023-06-19T05:12:31;28.27;;;18.65;;
44276;SDS011;29973;43.742;1.236;2023-06-19T05:14:59;27.80;;;16.83;;
44276;SDS011;29973;43.742;1.236;2023-06-19T05:17:25;31.50;;;18.13;;
44276;SDS011;29973;43.742;1.236;2023-06-19T05:19:50;30.83;;;16.95;;
44276;SDS011;29973;43.742;1.236;2023-06-19T05:22:16;25.17;;;16.25;;
44276;SDS011;29973;43.742;1.236;2023-06-19T05:24:43;28.98;;;16.52;;
44276;SDS011;29973;43.742;1.236;2023-06-19T05:27:10;21.65;;;14.60;;
44276;SDS011;29973;43.742;1.236;2023-06-19T05:29:35;25.40;;;14.48;;
44276;SDS011;29973;43.742;1.236;2023-06-19T05:32:01;22.52;;;14.52;;
44276;SDS011;29973;43.742;1.236;2023-06-19T05:34:27;27.90;;;15.32;;
44276;SDS011;29973;43.742;1.236;2023-06-19T05:36:53;22.67;;;14.57;;
44276;SDS011;29973;43.742;1.236;2023-06-19T05:39:19;21.75;;;14.02;;
44276;SDS011;29973;43.742;1.236;2023-06-19T05:41:45;19.92;;;14.02;;
44276;SDS011;29973;43.742;1.236;2023-06-19T05:44:11;20.40;;;13.55;;
44276;SDS011;29973;43.742;1.236;2023-06-19T05:46:41;20.92;;;13.55;;
44276;SDS011;29973;43.742;1.236;2023-06-19T05:49:08;14.98;;;11.80;;
44276;SDS011;29973;43.742;1.236;2023-06-19T05:51:33;22.13;;;12.82;;
44276;SDS011;29973;43.742;1.236;2023-06-19T05:53:59;14.73;;;11.02;;
44276;SDS011;29973;43.742;1.236;2023-06-19T05:56:31;22.30;;;13.82;;
44276;SDS011;29973;43.742;1.236;2023-06-19T05:59:01;18.88;;;12.00;;
44276;SDS011;29973;43.742;1.236;2023-06-19T06:01:27;18.83;;;11.80;;
44276;SDS011;29973;43.742;1.236;2023-06-19T06:03:54;21.67;;;12.10;;
44276;SDS011;29973;43.742;1.236;2023-06-19T06:06:20;21.02;;;11.40;;
44276;SDS011;29973;43.742;1.236;2023-06-19T06:08:47;19.50;;;11.00;;
44276;SDS011;29973;43.742;1.236;2023-06-19T06:11:13;15.00;;;10.35;;
44276;SDS011;29973;43.742;1.236;2023-06-19T06:13:39;20.33;;;10.75;;
44276;SDS011;29973;43.742;1.236;2023-06-19T06:16:04;18.20;;;9.65;;
44276;SDS011;29973;43.742;1.236;2023-06-19T06:18:30;16.08;;;10.25;;
44276;SDS011;29973;43.742;1.236;2023-06-19T06:20:56;16.90;;;10.23;;
44276;SDS011;29973;43.742;1.236;2023-06-19T06:23:24;18.15;;;9.93;;
44276;SDS011;29973;43.742;1.236;2023-06-19T06:25:49;19.05;;;10.57;;
44276;SDS011;29973;43.742;1.236;2023-06-19T06:28:15;16.42;;;11.38;;
44276;SDS011;29973;43.742;1.236;2023-06-19T06:30:42;16.10;;;9.98;;
44276;SDS011;29973;43.742;1.236;2023-06-19T06:33:13;16.50;;;11.50;;
44276;SDS011;29973;43.742;1.236;2023-06-19T06:35:45;12.90;;;10.30;;
44276;SDS011;29973;43.742;1.236;2023-06-19T06:38:16;18.52;;;11.00;;
44276;SDS011;29973;43.742;1.236;2023-06-19T06:40:46;15.60;;;10.65;;
44276;SDS011;29973;43.742;1.236;2023-06-19T06:43:18;13.88;;;10.18;;
44276;SDS011;29973;43.742;1.236;2023-06-19T06:45:54;16.70;;;11.60;;
44276;SDS011;29973;43.742;1.236;2023-06-19T06:48:26;13.52;;;10.20;;
44276;SDS011;29973;43.742;1.236;2023-06-19T06:50:53;17.13;;;9.90;;
44276;SDS011;29973;43.742;1.236;2023-06-19T06:53:30;12.00;;;9.88;;
44276;SDS011;29973;43.742;1.236;2023-06-19T06:56:00;18.25;;;11.07;;
44276;SDS011;29973;43.742;1.236;2023-06-19T06:58:32;18.10;;;11.23;;
44276;SDS011;29973;43.742;1.236;2023-06-19T07:03:34;22.38;;;11.60;;
44276;SDS011;29973;43.742;1.236;2023-06-19T07:08:30;15.90;;;11.23;;
44276;SDS011;29973;43.742;1.236;2023-06-19T07:10:59;16.55;;;11.35;;
44276;SDS011;29973;43.742;1.236;2023-06-19T07:13:28;17.00;;;11.73;;
44276;SDS011;29973;43.742;1.236;2023-06-19T07:15:55;19.48;;;11.48;;
44276;SDS011;29973;43.742;1.236;2023-06-19T07:18:28;27.75;;;12.40;;
44276;SDS011;29973;43.742;1.236;2023-06-19T07:21:00;16.25;;;11.45;;
44276;SDS011;29973;43.742;1.236;2023-06-19T07:23:30;19.63;;;12.25;;
44276;SDS011;29973;43.742;1.236;2023-06-19T07:25:59;19.77;;;13.23;;
44276;SDS011;29973;43.742;1.236;2023-06-19T07:28:33;22.92;;;12.23;;
44276;SDS011;29973;43.742;1.236;2023-06-19T07:31:03;18.70;;;13.27;;
44276;SDS011;29973;43.742;1.236;2023-06-19T07:33:36;15.77;;;13.52;;
44276;SDS011;29973;43.742;1.236;2023-06-19T07:36:04;24.52;;;13.25;;
44276;SDS011;29973;43.742;1.236;2023-06-19T07:38:35;20.52;;;13.55;;
44276;SDS011;29973;43.742;1.236;2023-06-19T07:41:10;19.33;;;13.95;;
44276;SDS011;29973;43.742;1.236;2023-06-19T07:43:42;21.33;;;14.40;;
44276;SDS011;29973;43.742;1.236;2023-06-19T07:46:10;26.05;;;14.57;;
44276;SDS011;29973;43.742;1.236;2023-06-19T07:48:40;29.88;;;15.68;;
44276;SDS011;29973;43.742;1.236;2023-06-19T07:51:05;25.15;;;16.08;;
44276;SDS011;29973;43.742;1.236;2023-06-19T07:53:31;28.05;;;16.45;;
44276;SDS011;29973;43.742;1.236;2023-06-19T07:55:57;23.17;;;17.30;;
44276;SDS011;29973;43.742;1.236;2023-06-19T07:58:23;27.17;;;17.05;;
44276;SDS011;29973;43.742;1.236;2023-06-19T08:00:48;26.92;;;16.02;;
44276;SDS011;29973;43.742;1.236;2023-06-19T08:03:14;22.27;;;16.30;;
44276;SDS011;29973;43.742;1.236;2023-06-19T08:05:39;22.10;;;16.55;;
44276;SDS011;29973;43.742;1.236;2023-06-19T08:08:05;26.98;;;17.20;;
44276;SDS011;29973;43.742;1.236;2023-06-19T08:10:31;22.83;;;16.50;;
44276;SDS011;29973;43.742;1.236;2023-06-19T08:12:56;26.17;;;16.70;;
44276;SDS011;29973;43.742;1.236;2023-06-19T08:15:22;25.08;;;16.73;;
44276;SDS011;29973;43.742;1.236;2023-06-19T08:17:48;22.42;;;15.43;;
44276;SDS011;29973;43.742;1.236;2023-06-19T08:20:14;31.95;;;16.98;;
44276;SDS011;29973;43.742;1.236;2023-06-19T08:22:40;27.48;;;17.05;;
44276;SDS011;29973;43.742;1.236;2023-06-19T08:25:06;27.73;;;18.55;;
44276;SDS011;29973;43.742;1.236;2023-06-19T08:27:32;24.17;;;19.42;;
44276;SDS011;29973;43.742;1.236;2023-06-19T08:29:58;33.88;;;22.25;;
44276;SDS011;29973;43.742;1.236;2023-06-19T08:32:23;31.38;;;20.27;;
44276;SDS011;29973;43.742;1.236;2023-06-19T08:34:50;31.83;;;20.02;;
44276;SDS011;29973;43.742;1.236;2023-06-19T08:37:17;23.35;;;17.67;;
44276;SDS011;29973;43.742;1.236;2023-06-19T08:39:43;27.08;;;17.75;;
44276;SDS011;29973;43.742;1.236;2023-06-19T08:42:09;28.10;;;17.83;;
44276;SDS011;29973;43.742;1.236;2023-06-19T08:44:35;23.40;;;16.83;;
44276;SDS011;29973;43.742;1.236;2023-06-19T08:47:02;24.30;;;15.73;;
44276;SDS011;29973;43.742;1.236;2023-06-19T08:49:33;23.40;;;14.98;;
44276;SDS011;29973;43.742;1.236;2023-06-19T08:52:00;25.48;;;15.95;;
44276;SDS011;29973;43.742;1.236;2023-06-19T08:54:29;23.47;;;16.07;;
44276;SDS011;29973;43.742;1.236;2023-06-19T08:56:55;22.55;;;13.70;;
44276;SDS011;29973;43.742;1.236;2023-06-19T08:59:25;27.75;;;13.43;;
44276;SDS011;29973;43.742;1.236;2023-06-19T09:01:52;18.60;;;12.52;;
44276;SDS011;29973;43.742;1.236;2023-06-19T09:04:21;23.38;;;13.25;;
44276;SDS011;29973;43.742;1.236;2023-06-19T09:06:52;22.93;;;13.23;;
44276;SDS011;29973;43.742;1.236;2023-06-19T09:09:27;19.70;;;13.02;;
44276;SDS011;29973;43.742;1.236;2023-06-19T09:12:14;17.70;;;12.98;;
44276;SDS011;29973;43.742;1.236;2023-06-19T09:14:41;22.38;;;14.32;;
44276;SDS011;29973;43.742;1.236;2023-06-19T09:17:17;23.20;;;14.57;;
44276;SDS011;29973;43.742;1.236;2023-06-19T09:19:51;23.33;;;15.15;;
44276;SDS011;29973;43.742;1.236;2023-06-19T09:22:21;22.17;;;14.45;;
44276;SDS011;29973;43.742;1.236;2023-06-19T09:24:59;23.75;;;15.40;;
44276;SDS011;29973;43.742;1.236;2023-06-19T09:27:32;23.20;;;15.13;;
44276;SDS011;29973;43.742;1.236;2023-06-19T09:29:58;22.77;;;16.52;;
44276;SDS011;29973;43.742;1.236;2023-06-19T09:32:26;18.25;;;15.57;;
44276;SDS011;29973;43.742;1.236;2023-06-19T09:34:54;18.80;;;16.02;;
44276;SDS011;29973;43.742;1.236;2023-06-19T09:37:24;23.00;;;16.27;;
44276;SDS011;29973;43.742;1.236;2023-06-19T09:42:17;25.42;;;15.30;;
44276;SDS011;29973;43.742;1.236;2023-06-19T09:44:49;19.40;;;15.10;;
44276;SDS011;29973;43.742;1.236;2023-06-19T09:49:49;19.73;;;14.93;;
44276;SDS011;29973;43.742;1.236;2023-06-19T09:54:47;21.98;;;15.20;;
44276;SDS011;29973;43.742;1.236;2023-06-19T09:57:17;26.17;;;16.13;;
44276;SDS011;29973;43.742;1.236;2023-06-19T09:59:55;23.33;;;15.57;;
44276;SDS011;29973;43.742;1.236;2023-06-19T10:02:24;25.08;;;15.02;;
44276;SDS011;29973;43.742;1.236;2023-06-19T10:04:52;25.15;;;14.73;;
44276;SDS011;29973;43.742;1.236;2023-06-19T10:07:24;24.55;;;14.32;;
44276;SDS011;29973;43.742;1.236;2023-06-19T10:09:56;19.05;;;14.57;;
44276;SDS011;29973;43.742;1.236;2023-06-19T10:15:18;17.83;;;12.90;;
44276;SDS011;29973;43.742;1.236;2023-06-19T10:17:46;16.67;;;12.85;;
44276;SDS011;29973;43.742;1.236;2023-06-19T10:22:57;15.13;;;11.90;;
44276;SDS011;29973;43.742;1.236;2023-06-19T10:25:31;23.52;;;13.23;;
44276;SDS011;29973;43.742;1.236;2023-06-19T10:27:58;16.83;;;12.20;;
44276;SDS011;29973;43.742;1.236;2023-06-19T10:30:25;20.73;;;12.55;;
44276;SDS011;29973;43.742;1.236;2023-06-19T10:32:51;16.25;;;12.60;;
44276;SDS011;29973;43.742;1.236;2023-06-19T10:35:18;16.40;;;10.55;;
44276;SDS011;29973;43.742;1.236;2023-06-19T10:37:49;14.95;;;10.98;;
44276;SDS011;29973;43.742;1.236;2023-06-19T10:40:15;19.48;;;11.65;;
44276;SDS011;29973;43.742;1.236;2023-06-19T10:42:41;18.73;;;11.70;;
44276;SDS011;29973;43.742;1.236;2023-06-19T10:45:08;14.45;;;11.07;;
44276;SDS011;29973;43.742;1.236;2023-06-19T10:47:37;19.98;;;11.38;;
44276;SDS011;29973;43.742;1.236;2023-06-19T10:50:04;15.50;;;11.73;;
44276;SDS011;29973;43.742;1.236;2023-06-19T10:52:34;18.85;;;12.27;;
44276;SDS011;29973;43.742;1.236;2023-06-19T10:55:00;15.20;;;11.77;;
44276;SDS011;29973;43.742;1.236;2023-06-19T10:57:28;17.73;;;11.80;;
44276;SDS011;29973;43.742;1.236;2023-06-19T10:59:55;14.55;;;11.48;;
44276;SDS011;29973;43.742;1.236;2023-06-19T11:02:21;15.52;;;10.95;;
44276;SDS011;29973;43.742;1.236;2023-06-19T11:04:47;17.42;;;10.10;;
44276;SDS011;29973;43.742;1.236;2023-06-19T11:07:13;14.40;;;10.57;;
44276;SDS011;29973;43.742;1.236;2023-06-19T11:09:39;13.52;;;10.25;;
44276;SDS011;29973;43.742;1.236;2023-06-19T11:12:04;14.73;;;10.25;;
44276;SDS011;29973;43.742;1.236;2023-06-19T11:14:33;12.98;;;9.85;;
44276;SDS011;29973;43.742;1.236;2023-06-19T11:17:05;13.43;;;8.65;;
44276;SDS011;29973;43.742;1.236;2023-06-19T11:19:31;11.95;;;9.50;;
44276;SDS011;29973;43.742;1.236;2023-06-19T11:22:00;13.15;;;9.18;;
44276;SDS011;29973;43.742;1.236;2023-06-19T11:24:27;13.20;;;9.80;;
44276;SDS011;29973;43.742;1.236;2023-06-19T11:26:53;11.68;;;9.00;;
44276;SDS011;29973;43.742;1.236;2023-06-19T11:29:28;15.30;;;10.25;;
44276;SDS011;29973;43.742;1.236;2023-06-19T11:32:07;11.13;;;9.68;;
44276;SDS011;29973;43.742;1.236;2023-06-19T11:34:36;11.10;;;8.60;;
44276;SDS011;29973;43.742;1.236;2023-06-19T11:37:02;14.18;;;9.52;;
44276;SDS011;29973;43.742;1.236;2023-06-19T11:39:39;11.40;;;8.57;;
44276;SDS011;29973;43.742;1.236;2023-06-19T11:42:07;16.10;;;8.43;;
44276;SDS011;29973;43.742;1.236;2023-06-19T11:44:34;13.07;;;8.73;;
44276;SDS011;29973;43.742;1.236;2023-06-19T11:47:00;13.63;;;9.13;;
44276;SDS011;29973;43.742;1.236;2023-06-19T11:49:34;10.20;;;8.05;;
44276;SDS011;29973;43.742;1.236;2023-06-19T11:52:09;11.82;;;8.45;;
44276;SDS011;29973;43.742;1.236;2023-06-19T11:54:41;11.07;;;7.90;;
44276;SDS011;29973;43.742;1.236;2023-06-19T11:57:19;15.18;;;8.18;;
44276;SDS011;29973;43.742;1.236;2023-06-19T12:02:53;15.57;;;9.25;;
44276;SDS011;29973;43.742;1.236;2023-06-19T12:05:27;13.52;;;8.10;;
44276;SDS011;29973;43.742;1.236;2023-06-19T12:08:06;13.63;;;8.60;;
44276;SDS011;29973;43.742;1.236;2023-06-19T12:10:36;16.70;;;8.95;;
44276;SDS011;29973;43.742;1.236;2023-06-19T12:13:02;10.27;;;8.50;;
44276;SDS011;29973;43.742;1.236;2023-06-19T12:15:32;11.73;;;8.48;;
44276;SDS011;29973;43.742;1.236;2023-06-19T12:18:02;13.30;;;9.30;;
44276;SDS011;29973;43.742;1.236;2023-06-19T12:23:02;11.70;;;8.73;;
44276;SDS011;29973;43.742;1.236;2023-06-19T12:25:34;20.17;;;9.35;;
44276;SDS011;29973;43.742;1.236;2023-06-19T12:28:07;15.48;;;8.80;;
44276;SDS011;29973;43.742;1.236;2023-06-19T12:30:43;13.50;;;8.73;;
44276;SDS011;29973;43.742;1.236;2023-06-19T12:33:10;15.98;;;9.02;;
44276;SDS011;29973;43.742;1.236;2023-06-19T12:35:39;12.43;;;8.95;;
44276;SDS011;29973;43.742;1.236;2023-06-19T12:38:17;12.40;;;8.48;;
44276;SDS011;29973;43.742;1.236;2023-06-19T12:40:46;10.05;;;8.20;;
44276;SDS011;29973;43.742;1.236;2023-06-19T12:43:19;11.85;;;8.45;;
44276;SDS011;29973;43.742;1.236;2023-06-19T12:45:50;12.10;;;8.68;;
44276;SDS011;29973;43.742;1.236;2023-06-19T12:48:20;13.05;;;8.25;;
44276;SDS011;29973;43.742;1.236;2023-06-19T12:50:51;12.75;;;8.77;;
44276;SDS011;29973;43.742;1.236;2023-06-19T12:53:25;10.80;;;8.13;;
44276;SDS011;29973;43.742;1.236;2023-06-19T12:55:56;11.00;;;8.63;;
44276;SDS011;29973;43.742;1.236;2023-06-19T12:58:32;14.13;;;9.00;;
44276;SDS011;29973;43.742;1.236;2023-06-19T13:01:06;19.55;;;9.05;;
44276;SDS011;29973;43.742;1.236;2023-06-19T13:03:41;10.20;;;7.82;;
44276;SDS011;29973;43.742;1.236;2023-06-19T13:06:10;12.27;;;8.85;;
44276;SDS011;29973;43.742;1.236;2023-06-19T13:08:47;11.43;;;8.27;;
44276;SDS011;29973;43.742;1.236;2023-06-19T13:11:19;10.85;;;8.45;;
44276;SDS011;29973;43.742;1.236;2023-06-19T13:13:53;11.82;;;8.60;;
44276;SDS011;29973;43.742;1.236;2023-06-19T13:16:25;11.85;;;8.88;;
44276;SDS011;29973;43.742;1.236;2023-06-19T13:18:54;11.25;;;8.10;;
44276;SDS011;29973;43.742;1.236;2023-06-19T13:21:39;13.85;;;9.05;;
44276;SDS011;29973;43.742;1.236;2023-06-19T13:24:13;10.15;;;7.88;;
44276;SDS011;29973;43.742;1.236;2023-06-19T13:26:40;14.32;;;8.70;;
44276;SDS011;29973;43.742;1.236;2023-06-19T13:29:14;12.55;;;8.55;;
44276;SDS011;29973;43.742;1.236;2023-06-19T13:31:45;12.77;;;8.90;;
44276;SDS011;29973;43.742;1.236;2023-06-19T13:34:21;11.05;;;8.52;;
44276;SDS011;29973;43.742;1.236;2023-06-19T13:36:54;11.65;;;8.32;;
44276;SDS011;29973;43.742;1.236;2023-06-19T13:39:22;10.52;;;7.28;;
44276;SDS011;29973;43.742;1.236;2023-06-19T13:41:48;10.32;;;7.80;;
44276;SDS011;29973;43.742;1.236;2023-06-19T13:44:14;10.68;;;7.97;;
44276;SDS011;29973;43.742;1.236;2023-06-19T13:46:40;13.13;;;8.52;;
44276;SDS011;29973;43.742;1.236;2023-06-19T13:49:05;10.40;;;7.57;;
44276;SDS011;29973;43.742;1.236;2023-06-19T13:51:31;14.75;;;7.85;;
44276;SDS011;29973;43.742;1.236;2023-06-19T13:53:57;9.60;;;8.60;;
44276;SDS011;29973;43.742;1.236;2023-06-19T13:56:23;11.88;;;8.00;;
44276;SDS011;29973;43.742;1.236;2023-06-19T13:58:49;8.32;;;7.35;;
44276;SDS011;29973;43.742;1.236;2023-06-19T14:01:15;9.27;;;7.05;;
44276;SDS011;29973;43.742;1.236;2023-06-19T14:03:41;13.07;;;8.35;;
44276;SDS011;29973;43.742;1.236;2023-06-19T14:06:07;11.00;;;7.13;;
44276;SDS011;29973;43.742;1.236;2023-06-19T14:08:33;10.25;;;7.43;;
44276;SDS011;29973;43.742;1.236;2023-06-19T14:10:59;8.88;;;7.43;;
44276;SDS011;29973;43.742;1.236;2023-06-19T14:13:25;9.43;;;6.90;;
44276;SDS011;29973;43.742;1.236;2023-06-19T14:15:50;12.80;;;6.15;;
44276;SDS011;29973;43.742;1.236;2023-06-19T14:18:17;9.55;;;7.28;;
44276;SDS011;29973;43.742;1.236;2023-06-19T14:20:43;12.05;;;7.57;;
44276;SDS011;29973;43.742;1.236;2023-06-19T14:23:09;12.20;;;7.20;;
44276;SDS011;29973;43.742;1.236;2023-06-19T14:25:35;8.75;;;7.05;;
44276;SDS011;29973;43.742;1.236;2023-06-19T14:28:00;11.52;;;7.35;;
44276;SDS011;29973;43.742;1.236;2023-06-19T14:30:26;11.30;;;7.50;;
44276;SDS011;29973;43.742;1.236;2023-06-19T14:32:52;11.48;;;7.47;;
44276;SDS011;29973;43.742;1.236;2023-06-19T14:35:17;10.52;;;7.50;;
44276;SDS011;29973;43.742;1.236;2023-06-19T14:37:43;8.75;;;7.07;;
44276;SDS011;29973;43.742;1.236;2023-06-19T14:40:09;8.48;;;7.25;;
44276;SDS011;29973;43.742;1.236;2023-06-19T14:42:35;9.63;;;6.70;;
44276;SDS011;29973;43.742;1.236;2023-06-19T14:45:00;11.55;;;7.22;;
44276;SDS011;29973;43.742;1.236;2023-06-19T14:47:34;10.00;;;7.95;;
44276;SDS011;29973;43.742;1.236;2023-06-19T14:50:08;11.68;;;8.15;;
44276;SDS011;29973;43.742;1.236;2023-06-19T14:52:39;9.57;;;7.68;;
44276;SDS011;29973;43.742;1.236;2023-06-19T14:55:20;11.88;;;7.57;;
44276;SDS011;29973;43.742;1.236;2023-06-19T14:57:50;14.20;;;7.85;;